createdAt,value
2022-11-22T00:01:19.517Z,51.00
2022-11-22T00:03:47.207Z,57.65
2022-11-22T00:06:15.681Z,99.63
2022-11-22T00:08:43.683Z,67.63
2022-11-22T00:11:11.624Z,72.57
2022-11-22T00:13:39.467Z,75.18
2022-11-22T00:16:09.687Z,77.72
2022-11-22T00:18:37.394Z,90.95
2022-11-22T00:21:07.220Z,93.32
2022-11-22T00:23:35.257Z,78.03
2022-11-22T00:26:03.307Z,86.32
2022-11-22T00:28:31.143Z,92.88
2022-11-22T00:30:59.137Z,104.22
2022-11-22T00:33:28.220Z,110.40
2022-11-22T00:35:56.312Z,84.70
2022-11-22T00:38:24.145Z,90.90
2022-11-22T00:40:52.144Z,86.95
2022-11-22T00:43:20.147Z,89.32
2022-11-22T00:45:48.239Z,97.55
2022-11-22T00:48:16.336Z,94.13
2022-11-22T00:50:45.845Z,93.65
2022-11-22T00:53:13.539Z,95.13
2022-11-22T00:55:41.548Z,88.13
2022-11-22T00:58:09.510Z,93.93
2022-11-22T01:00:37.618Z,101.32
2022-11-22T01:03:05.430Z,106.95
2022-11-22T01:05:33.608Z,103.03
2022-11-22T01:08:02.790Z,102.65
2022-11-22T01:10:30.768Z,97.45
2022-11-22T01:12:59.032Z,97.50
2022-11-22T01:15:27.239Z,93.38
2022-11-22T01:17:54.936Z,90.43
2022-11-22T01:20:23.072Z,86.32
2022-11-22T01:22:51.041Z,79.55
2022-11-22T01:25:20.495Z,91.43
2022-11-22T01:27:50.892Z,92.28
2022-11-22T01:30:20.689Z,99.57
2022-11-22T01:32:48.400Z,93.78
2022-11-22T01:35:16.580Z,90.82
2022-11-22T01:37:44.324Z,101.35
2022-11-22T01:40:13.241Z,92.57
2022-11-22T01:42:47.108Z,91.72
2022-11-22T01:45:43.230Z,111.97
2022-11-22T01:48:25.322Z,107.95
2022-11-22T01:50:58.663Z,91.75
2022-11-22T01:53:30.347Z,106.05
2022-11-22T01:56:00.804Z,146.68
2022-11-22T01:58:34.916Z,214.18
2022-11-22T02:01:03.574Z,212.85
2022-11-22T02:03:34.122Z,154.25
2022-11-22T02:06:03.178Z,149.35
2022-11-22T02:08:38.741Z,130.10
2022-11-22T02:11:09.076Z,175.85
2022-11-22T02:13:43.447Z,327.67
2022-11-22T02:16:12.837Z,298.20
2022-11-22T02:18:41.015Z,167.25
2022-11-22T02:21:09.363Z,109.00
2022-11-22T02:23:48.832Z,104.13
2022-11-22T02:26:18.475Z,89.93
2022-11-22T02:28:46.628Z,106.50
2022-11-22T02:31:38.255Z,92.22
2022-11-22T02:34:06.372Z,104.45
2022-11-22T02:36:38.491Z,125.18
2022-11-22T02:39:07.983Z,101.72
2022-11-22T02:41:39.113Z,274.45
2022-11-22T02:44:08.452Z,88.03
2022-11-22T02:46:36.556Z,89.00
2022-11-22T02:49:04.592Z,119.05
2022-11-22T02:51:32.577Z,109.78
2022-11-22T02:54:00.369Z,117.22
2022-11-22T02:56:28.443Z,95.03
2022-11-22T02:58:57.671Z,85.07
2022-11-22T03:01:26.241Z,122.55
2022-11-22T03:03:54.151Z,140.07
2022-11-22T03:06:22.172Z,96.00
2022-11-22T03:08:55.941Z,104.05
2022-11-22T03:11:24.643Z,118.75
2022-11-22T03:13:52.728Z,78.97
2022-11-22T03:16:22.197Z,73.07
2022-11-22T03:18:50.055Z,80.97
2022-11-22T03:21:18.233Z,75.47
2022-11-22T03:23:46.032Z,76.03
2022-11-22T03:26:14.127Z,80.32
2022-11-22T03:28:41.902Z,85.97
2022-11-22T03:31:10.070Z,81.18
2022-11-22T03:33:39.268Z,72.53
2022-11-22T03:36:07.327Z,64.68
2022-11-22T03:38:35.522Z,77.82
2022-11-22T03:41:03.587Z,71.00
2022-11-22T03:43:31.528Z,72.70
2022-11-22T03:45:59.604Z,74.28
2022-11-22T03:48:27.607Z,95.70
2022-11-22T03:51:04.314Z,97.82
2022-11-22T03:53:32.597Z,77.45
2022-11-22T03:56:00.864Z,72.80
2022-11-22T03:58:28.735Z,86.90
2022-11-22T04:00:57.136Z,67.25
2022-11-22T04:03:25.113Z,67.80
2022-11-22T04:05:53.276Z,62.80
2022-11-22T04:08:22.495Z,62.70
2022-11-22T04:10:50.953Z,76.88
2022-11-22T04:13:19.820Z,66.65
2022-11-22T04:15:46.951Z,74.40
2022-11-22T04:18:15.568Z,71.45
2022-11-22T04:21:01.726Z,66.15
2022-11-22T04:23:33.985Z,66.47
2022-11-22T04:26:02.537Z,70.30
2022-11-22T04:28:54.008Z,64.30
2022-11-22T04:31:35.941Z,57.22
2022-11-22T04:34:03.801Z,58.08
2022-11-22T04:36:31.943Z,57.92
2022-11-22T04:39:01.009Z,63.63
2022-11-22T04:41:29.108Z,58.10
2022-11-22T04:44:14.383Z,58.13
2022-11-22T04:46:42.539Z,59.60
2022-11-22T04:49:10.259Z,51.78
2022-11-22T04:51:56.023Z,58.25
2022-11-22T04:54:25.283Z,56.40
2022-11-22T04:56:53.335Z,50.78
2022-11-22T04:59:21.068Z,55.05
2022-11-22T05:01:49.147Z,51.80
2022-11-22T05:04:17.284Z,52.65
2022-11-22T05:06:45.366Z,50.47
2022-11-22T05:09:13.175Z,59.28
2022-11-22T05:11:42.707Z,58.67
2022-11-22T05:14:10.731Z,53.50
2022-11-22T05:16:38.856Z,52.30
2022-11-22T05:19:06.565Z,56.22
2022-11-22T05:21:37.343Z,51.70
2022-11-22T05:24:04.896Z,53.90
2022-11-22T05:26:35.034Z,53.42
2022-11-22T05:29:07.745Z,58.33
2022-11-22T05:31:37.835Z,64.13
2022-11-22T05:34:06.093Z,53.83
2022-11-22T05:36:35.766Z,58.85
2022-11-22T05:39:05.228Z,52.38
2022-11-22T05:41:33.175Z,54.50
2022-11-22T05:44:01.162Z,58.72
2022-11-22T05:46:31.523Z,53.40
2022-11-22T05:48:59.532Z,52.75
2022-11-22T05:51:34.540Z,56.63
2022-11-22T05:54:02.997Z,48.60
2022-11-22T05:56:31.239Z,66.55
2022-11-22T05:58:59.004Z,95.72
2022-11-22T06:01:27.350Z,85.85
2022-11-22T06:03:57.210Z,75.80
2022-11-22T06:06:25.280Z,85.22
2022-11-22T06:08:53.138Z,85.70
2022-11-22T06:11:23.648Z,91.32
2022-11-22T06:13:54.259Z,94.78
2022-11-22T06:16:23.307Z,104.03
2022-11-22T06:18:51.787Z,117.25
2022-11-22T06:21:24.298Z,133.18
2022-11-22T06:23:54.149Z,118.22
2022-11-22T06:26:23.933Z,128.32
2022-11-22T06:28:53.682Z,128.50
2022-11-22T06:31:23.964Z,125.68
2022-11-22T06:33:53.716Z,111.65
2022-11-22T06:36:25.893Z,103.85
2022-11-22T06:38:54.888Z,109.40
2022-11-22T06:41:24.528Z,100.10
2022-11-22T06:43:54.207Z,92.85
2022-11-22T06:46:24.075Z,98.03
2022-11-22T06:48:52.271Z,98.97
2022-11-22T06:51:25.197Z,105.30
2022-11-22T06:53:55.032Z,118.57
2022-11-22T06:56:25.167Z,120.90
2022-11-22T06:58:54.537Z,112.97
2022-11-22T07:01:25.867Z,112.40
2022-11-22T07:03:58.038Z,109.10
2022-11-22T07:06:29.939Z,100.78
2022-11-22T07:08:59.474Z,109.47
2022-11-22T07:11:29.589Z,109.47
2022-11-22T07:14:05.341Z,118.60
2022-11-22T07:16:36.789Z,111.40
2022-11-22T07:19:05.255Z,104.65
2022-11-22T07:21:37.157Z,103.47
2022-11-22T07:24:06.922Z,104.40
2022-11-22T07:26:35.221Z,99.72
2022-11-22T07:29:03.206Z,94.82
2022-11-22T07:31:31.546Z,98.85
2022-11-22T07:33:59.482Z,107.63
2022-11-22T07:36:29.796Z,106.78
2022-11-22T07:38:59.295Z,94.60
2022-11-22T07:41:27.281Z,101.78
2022-11-22T07:43:55.635Z,86.68
2022-11-22T07:46:26.179Z,110.68
2022-11-22T07:48:53.956Z,115.32
2022-11-22T07:51:21.976Z,111.00
2022-11-22T07:53:49.748Z,108.95
2022-11-22T07:56:19.326Z,104.90
2022-11-22T07:58:47.308Z,113.00
2022-11-22T08:01:17.600Z,120.85
2022-11-22T08:03:46.310Z,110.18
2022-11-22T08:06:16.446Z,130.90
2022-11-22T08:08:45.406Z,128.65
2022-11-22T08:11:13.524Z,137.90
2022-11-22T08:13:43.900Z,164.45
2022-11-22T08:16:14.328Z,142.75
2022-11-22T08:18:46.455Z,135.93
2022-11-22T08:23:44.082Z,119.32
2022-11-22T08:26:13.618Z,120.90
2022-11-22T08:28:43.654Z,128.60
2022-11-22T08:31:13.944Z,111.75
2022-11-22T08:33:42.152Z,106.22
2022-11-22T08:36:10.218Z,104.22
2022-11-22T08:38:38.284Z,106.78
2022-11-22T08:41:07.491Z,120.18
2022-11-22T08:43:35.308Z,108.68
2022-11-22T08:46:05.404Z,108.68
2022-11-22T08:48:35.575Z,129.82
2022-11-22T08:51:05.532Z,105.97
2022-11-22T08:53:34.581Z,97.10
2022-11-22T08:56:04.008Z,83.03
2022-11-22T08:58:32.926Z,75.82
2022-11-22T09:01:06.647Z,94.90
2022-11-22T09:03:35.355Z,95.90
2022-11-22T09:09:15.010Z,115.07
2022-11-22T09:11:40.766Z,97.93
2022-11-22T09:14:08.483Z,114.85
2022-11-22T09:16:37.976Z,75.20
2022-11-22T09:19:05.775Z,98.25
2022-11-22T09:21:33.836Z,100.68
2022-11-22T09:24:01.703Z,97.63
2022-11-22T09:26:30.470Z,110.53
2022-11-22T09:28:58.423Z,105.10
2022-11-22T09:31:26.597Z,112.97
2022-11-22T09:33:55.764Z,111.07
2022-11-22T09:36:26.767Z,97.90
2022-11-22T09:38:56.069Z,89.20
2022-11-22T09:41:47.392Z,91.57
2022-11-22T09:44:22.748Z,86.97
2022-11-22T09:46:53.984Z,93.15
2022-11-22T09:49:31.124Z,75.38
2022-11-22T09:52:07.325Z,83.15
2022-11-22T09:54:42.957Z,88.43
2022-11-22T09:57:16.518Z,81.93
2022-11-22T09:59:48.421Z,75.20
2022-11-22T10:02:23.961Z,75.88
2022-11-22T10:04:58.314Z,85.03
2022-11-22T10:07:32.068Z,78.53
2022-11-22T10:10:05.499Z,73.70
2022-11-22T10:12:39.688Z,74.72
2022-11-22T10:15:15.419Z,79.57
2022-11-22T10:17:52.819Z,82.60
2022-11-22T10:20:23.921Z,82.60
2022-11-22T10:22:51.977Z,77.00
2022-11-22T10:25:22.638Z,82.88
2022-11-22T10:27:57.630Z,72.82
2022-11-22T10:30:33.641Z,64.78
2022-11-22T10:33:11.907Z,76.65
2022-11-22T10:35:55.904Z,60.90
2022-11-22T10:39:02.241Z,68.22
2022-11-22T10:41:41.704Z,54.88
2022-11-22T10:44:24.955Z,63.63
2022-11-22T10:47:01.747Z,65.05
2022-11-22T10:49:45.196Z,63.35
2022-11-22T10:52:25.645Z,64.40
2022-11-22T10:55:04.489Z,66.20
2022-11-22T10:57:39.709Z,63.10
2022-11-22T11:00:19.450Z,67.50
2022-11-22T11:03:14.775Z,75.50
2022-11-22T11:06:15.665Z,63.15
2022-11-22T11:09:23.450Z,64.80
2022-11-22T11:11:31.190Z,84.30
2022-11-22T11:14:02.789Z,69.05
2022-11-22T11:16:34.752Z,83.97
2022-11-22T11:21:40.501Z,53.17
2022-11-22T11:24:13.848Z,46.28
2022-11-22T11:26:44.166Z,45.33
2022-11-22T11:29:37.740Z,37.25
2022-11-22T11:32:14.183Z,43.85
2022-11-22T11:34:48.023Z,44.08
2022-11-22T11:37:26.355Z,36.08
2022-11-22T11:39:55.487Z,23.35
2022-11-22T11:42:29.968Z,12.50
2022-11-22T11:45:26.900Z,8.57
2022-11-22T11:47:55.176Z,8.30
2022-11-22T11:50:25.529Z,5.60
2022-11-22T11:52:56.415Z,6.38
2022-11-22T11:55:26.144Z,5.78
2022-11-22T11:57:54.842Z,5.63
2022-11-22T12:00:27.278Z,6.28
2022-11-22T12:02:59.717Z,6.65
2022-11-22T12:07:56.810Z,6.70
2022-11-22T12:10:32.425Z,6.50
2022-11-22T12:13:05.114Z,5.70
2022-11-22T12:15:51.380Z,7.22
2022-11-22T12:18:33.355Z,4.00
2022-11-22T12:21:12.719Z,5.03
2022-11-22T12:23:51.081Z,4.20
2022-11-22T12:26:21.549Z,9.13
2022-11-22T12:28:50.509Z,9.98
2022-11-22T12:31:27.278Z,11.32
2022-11-22T12:33:59.213Z,12.77
2022-11-22T12:36:32.899Z,13.43
2022-11-22T12:39:04.641Z,11.75
2022-11-22T12:41:34.677Z,14.77
2022-11-22T12:44:04.421Z,12.80
2022-11-22T12:46:40.144Z,15.93
2022-11-22T12:49:16.326Z,16.17
2022-11-22T12:51:48.384Z,13.32
2022-11-22T12:56:51.455Z,12.77
2022-11-22T12:59:29.024Z,13.35
2022-11-22T13:02:05.963Z,13.55
2022-11-22T13:04:45.080Z,13.40
2022-11-22T13:07:17.262Z,12.25
2022-11-22T13:09:53.070Z,15.50
2022-11-22T13:12:30.868Z,18.73
2022-11-22T13:15:00.486Z,20.80
2022-11-22T13:17:33.682Z,16.88
2022-11-22T13:20:06.634Z,19.52
2022-11-22T13:22:46.640Z,17.67
2022-11-22T13:25:35.018Z,17.67
2022-11-22T13:28:12.828Z,18.25
2022-11-22T13:30:41.436Z,19.98
2022-11-22T13:33:25.336Z,14.43
2022-11-22T13:36:36.915Z,17.33
2022-11-22T13:39:08.536Z,12.77
2022-11-22T13:41:41.591Z,19.67
2022-11-22T13:44:34.426Z,17.17
2022-11-22T13:47:04.416Z,15.43
2022-11-22T13:49:41.161Z,20.25
2022-11-22T13:52:48.514Z,17.27
2022-11-22T13:55:29.860Z,24.42
2022-11-22T13:58:38.539Z,32.87
2022-11-22T14:01:33.334Z,40.10
2022-11-22T14:04:20.991Z,40.45
2022-11-22T14:06:50.739Z,41.20
2022-11-22T14:09:33.298Z,42.28
2022-11-22T14:12:36.419Z,44.50
2022-11-22T14:15:18.484Z,49.88
2022-11-22T14:17:54.020Z,45.03
2022-11-22T14:20:36.337Z,47.33
2022-11-22T14:23:14.844Z,48.42
2022-11-22T14:25:55.677Z,39.78
2022-11-22T14:28:41.922Z,36.88
2022-11-22T14:31:19.747Z,45.05
2022-11-22T14:34:18.757Z,37.35
2022-11-22T14:37:07.195Z,36.72
2022-11-22T14:40:04.659Z,38.42
2022-11-22T14:42:52.158Z,37.20
2022-11-22T14:45:26.126Z,44.13
2022-11-22T14:48:02.715Z,47.28
2022-11-22T14:50:34.494Z,66.10
2022-11-22T14:53:17.370Z,136.50
2022-11-22T14:55:45.843Z,105.80
2022-11-22T14:58:22.021Z,87.72
2022-11-22T15:01:11.892Z,103.22
2022-11-22T15:09:11.679Z,76.25
2022-11-22T15:09:18.208Z,67.53
2022-11-22T15:10:50.542Z,110.28
2022-11-22T15:13:45.064Z,85.45
2022-11-22T15:57:26.461Z,100.10
2022-11-22T15:59:56.996Z,70.72
2022-11-22T16:02:27.656Z,68.63
2022-11-22T16:06:06.775Z,61.93
2022-11-22T16:07:49.737Z,66.32
2022-11-22T16:10:22.684Z,56.83
2022-11-22T16:12:52.365Z,140.20
2022-11-22T16:15:28.692Z,132.90
2022-11-22T16:18:07.639Z,192.85
2022-11-22T16:20:36.638Z,198.75
2022-11-22T16:23:12.462Z,189.77
2022-11-22T16:25:42.256Z,112.90
2022-11-22T16:28:22.863Z,154.20
2022-11-22T16:30:54.249Z,111.50
2022-11-22T16:33:22.383Z,76.47
2022-11-22T16:35:54.865Z,71.13
2022-11-22T16:38:24.252Z,66.57
2022-11-22T16:40:53.439Z,67.05
2022-11-22T16:43:23.738Z,71.65
2022-11-22T16:45:53.196Z,66.55
2022-11-22T16:48:32.913Z,70.35
2022-11-22T16:51:04.595Z,67.30
2022-11-22T16:53:42.385Z,66.95
2022-11-22T16:56:19.258Z,67.22
2022-11-22T16:58:47.899Z,66.45
2022-11-22T17:01:18.998Z,66.07
2022-11-22T17:03:49.220Z,67.32
2022-11-22T17:06:19.025Z,57.13
2022-11-22T17:08:48.121Z,72.47
2022-11-22T17:11:17.803Z,64.57
2022-11-22T17:13:46.439Z,62.22
2022-11-22T17:16:15.169Z,64.35
2022-11-22T17:18:44.548Z,62.03
2022-11-22T17:21:17.564Z,69.20
2022-11-22T17:23:45.911Z,75.07
2022-11-22T17:26:13.744Z,67.93
2022-11-22T17:28:41.945Z,78.30
2022-11-22T17:31:13.175Z,78.68
2022-11-22T17:33:41.218Z,73.85
2022-11-22T17:36:20.980Z,102.68
2022-11-22T17:38:49.285Z,79.95
2022-11-22T17:41:17.117Z,70.95
2022-11-22T17:43:45.103Z,71.35
2022-11-22T17:46:13.070Z,76.85
2022-11-22T17:48:41.095Z,73.28
2022-11-22T17:51:12.319Z,75.47
2022-11-22T17:53:40.651Z,79.70
2022-11-22T17:56:11.192Z,81.97
2022-11-22T17:58:40.106Z,83.68
2022-11-22T18:01:09.664Z,88.22
2022-11-22T18:03:38.286Z,91.00
2022-11-22T18:06:06.963Z,84.97
2022-11-22T18:08:36.719Z,107.00
2022-11-22T18:11:05.613Z,90.88
2022-11-22T18:13:35.747Z,86.93
2022-11-22T18:16:05.425Z,101.28
2022-11-22T18:18:55.771Z,95.28
2022-11-22T18:21:21.762Z,106.65
2022-11-22T18:23:51.342Z,112.72
2022-11-22T18:31:55.363Z,167.20
2022-11-22T18:34:24.027Z,118.32
2022-11-22T18:36:55.730Z,88.80
2022-11-22T18:39:41.876Z,107.00
2022-11-22T18:42:13.599Z,98.55
2022-11-22T18:44:41.926Z,111.22
2022-11-22T18:47:09.797Z,119.07
2022-11-22T18:49:38.051Z,138.32
2022-11-22T18:52:06.526Z,135.85
2022-11-22T18:54:35.017Z,113.57
2022-11-22T18:57:04.393Z,116.95
2022-11-22T18:59:32.573Z,95.75
2022-11-22T19:02:00.440Z,95.53
2022-11-22T19:04:29.192Z,93.68
2022-11-22T19:06:57.266Z,100.10
2022-11-22T19:09:25.240Z,101.03
2022-11-22T19:11:58.325Z,93.78
2022-11-22T19:14:29.620Z,96.82
2022-11-22T19:16:57.663Z,104.00
2022-11-22T19:19:25.666Z,106.68
2022-11-22T19:21:53.658Z,129.02
2022-11-22T19:24:21.396Z,166.63
2022-11-22T19:26:49.402Z,198.88
2022-11-22T19:29:17.373Z,228.05
2022-11-22T19:31:46.759Z,204.23
2022-11-22T19:34:15.225Z,112.50
2022-11-22T19:36:43.769Z,212.73
2022-11-22T19:39:13.737Z,259.98
2022-11-22T19:41:43.156Z,253.40
2022-11-22T19:44:11.513Z,152.65
2022-11-22T19:46:41.380Z,169.93
2022-11-22T19:49:11.068Z,175.18
2022-11-22T19:51:39.309Z,190.57
2022-11-22T19:54:07.843Z,169.18
2022-11-22T19:56:38.033Z,143.35
2022-11-22T19:59:07.596Z,104.72
2022-11-22T20:01:36.060Z,104.80
2022-11-22T20:04:06.528Z,96.53
2022-11-22T20:06:37.346Z,94.20
2022-11-22T20:09:09.127Z,97.70
2022-11-22T20:11:38.315Z,92.80
2022-11-22T20:14:06.467Z,102.35
2022-11-22T20:16:34.737Z,113.95
2022-11-22T20:19:06.700Z,112.57
2022-11-22T20:21:36.895Z,105.60
2022-11-22T20:24:05.501Z,101.05
2022-11-22T20:26:34.352Z,96.10
2022-11-22T20:29:05.723Z,101.28
2022-11-22T20:31:35.463Z,98.85
2022-11-22T20:34:03.999Z,95.38
2022-11-22T20:36:35.045Z,106.88
2022-11-22T20:39:10.071Z,96.45
2022-11-22T20:41:40.459Z,101.85
2022-11-22T20:44:12.531Z,132.48
2022-11-22T20:46:41.453Z,188.85
2022-11-22T20:49:09.194Z,174.43
2022-11-22T20:51:39.591Z,150.23
2022-11-22T20:54:09.150Z,130.38
2022-11-22T20:56:37.867Z,108.45
2022-11-22T20:59:05.785Z,120.35
2022-11-22T21:01:33.987Z,123.22
2022-11-22T21:04:02.528Z,119.50
2022-11-22T21:06:32.780Z,109.13
2022-11-22T21:09:00.586Z,129.38
2022-11-22T21:11:30.934Z,155.02
2022-11-22T21:13:59.171Z,171.15
2022-11-22T21:16:28.240Z,115.93
2022-11-22T21:18:57.673Z,120.65
2022-11-22T21:21:26.307Z,110.40
2022-11-22T21:23:56.095Z,104.70
2022-11-22T21:26:25.132Z,107.18
2022-11-22T21:28:54.623Z,127.05
2022-11-22T21:31:23.907Z,119.18
2022-11-22T21:33:52.335Z,117.43
2022-11-22T21:36:20.974Z,151.73
2022-11-22T21:38:49.067Z,183.48
2022-11-22T21:44:08.095Z,244.68
2022-11-22T21:46:35.823Z,270.33
2022-11-22T21:49:03.816Z,228.10
2022-11-22T21:51:32.175Z,322.13
2022-11-22T21:54:01.075Z,224.77
2022-11-22T21:56:29.676Z,304.02
2022-11-22T21:58:58.129Z,299.67
2022-11-22T22:01:27.858Z,492.33
2022-11-22T22:03:55.903Z,420.55
2022-11-22T22:06:25.212Z,412.45
2022-11-22T22:08:53.429Z,459.08
2022-11-22T22:11:21.235Z,716.38
2022-11-22T22:13:49.471Z,636.63
2022-11-22T22:16:19.133Z,497.20
2022-11-22T22:18:48.736Z,645.33
2022-11-22T22:21:17.709Z,738.33
2022-11-22T22:23:46.785Z,779.30
2022-11-22T22:26:16.592Z,807.28
2022-11-22T22:28:46.019Z,636.50
2022-11-22T22:31:17.031Z,701.08
2022-11-22T22:33:46.509Z,952.25
2022-11-22T22:36:16.168Z,811.00
2022-11-22T22:38:44.214Z,556.25
2022-11-22T22:41:13.713Z,934.72
2022-11-22T22:43:44.692Z,588.80
2022-11-22T22:46:14.422Z,957.30
2022-11-22T22:48:43.182Z,839.58
2022-11-22T22:51:16.239Z,861.20
2022-11-22T22:53:45.434Z,1029.50
2022-11-22T22:56:14.803Z,759.83
2022-11-22T22:58:42.955Z,533.75
2022-11-22T23:01:14.063Z,621.28
2022-11-22T23:03:42.342Z,311.02
2022-11-22T23:06:12.381Z,332.20
2022-11-22T23:08:45.707Z,645.30
2022-11-22T23:11:14.078Z,793.03
2022-11-22T23:13:44.211Z,691.80
2022-11-22T23:16:13.544Z,566.00
2022-11-22T23:18:43.172Z,815.17
2022-11-22T23:21:12.823Z,493.98
2022-11-22T23:23:42.316Z,294.20
2022-11-22T23:26:12.899Z,398.13
2022-11-22T23:28:40.961Z,466.90
2022-11-22T23:31:09.952Z,453.38
2022-11-22T23:33:38.014Z,463.23
2022-11-22T23:36:07.303Z,566.65
2022-11-22T23:38:35.843Z,729.85
2022-11-22T23:41:05.973Z,573.67
2022-11-22T23:43:34.081Z,492.80
2022-11-22T23:46:01.940Z,536.95
2022-11-22T23:48:30.164Z,283.02
2022-11-22T23:51:03.627Z,529.58
2022-11-22T23:53:31.627Z,447.05
2022-11-22T23:56:06.603Z,640.25
2022-11-22T23:58:35.109Z,519.58
